createdAt,value
2023-05-09T00:02:08.477Z,4.79
2023-05-09T00:04:35.504Z,4.81
2023-05-09T00:07:02.597Z,4.82
2023-05-09T00:09:29.262Z,4.81
2023-05-09T00:11:56.052Z,4.80
2023-05-09T00:14:24.874Z,4.78
2023-05-09T00:16:51.778Z,4.77
2023-05-09T00:19:18.632Z,4.75
2023-05-09T00:21:45.862Z,4.71
2023-05-09T00:24:12.573Z,4.68
2023-05-09T00:26:39.379Z,4.66
2023-05-09T00:29:06.134Z,4.65
2023-05-09T00:31:33.127Z,4.66
2023-05-09T00:33:59.888Z,4.66
2023-05-09T00:36:26.589Z,4.65
2023-05-09T00:38:53.311Z,4.63
2023-05-09T00:41:20.055Z,4.59
2023-05-09T00:43:46.754Z,4.55
2023-05-09T00:46:13.482Z,4.50
2023-05-09T00:48:40.478Z,4.49
2023-05-09T00:51:07.255Z,4.47
2023-05-09T00:53:33.954Z,4.45
2023-05-09T00:56:00.774Z,4.42
2023-05-09T00:58:27.605Z,4.37
2023-05-09T01:00:54.318Z,4.34
2023-05-09T01:03:21.168Z,4.33
2023-05-09T01:05:53.220Z,4.34
2023-05-09T01:08:35.208Z,4.35
2023-05-09T01:11:07.230Z,4.37
2023-05-09T01:13:41.443Z,4.38
2023-05-09T01:16:18.329Z,4.40
2023-05-09T01:19:19.064Z,4.40
2023-05-09T01:21:45.833Z,4.38
2023-05-09T01:24:39.414Z,4.37
2023-05-09T01:27:32.777Z,4.34
2023-05-09T01:30:00.381Z,4.31
2023-05-09T01:32:28.387Z,4.30
2023-05-09T01:34:56.038Z,4.29
2023-05-09T01:37:26.092Z,4.27
2023-05-09T01:39:53.343Z,4.25
2023-05-09T01:42:20.486Z,4.24
2023-05-09T01:44:47.845Z,4.24
2023-05-09T01:47:16.531Z,4.24
2023-05-09T01:49:43.326Z,4.23
2023-05-09T01:52:13.564Z,4.21
2023-05-09T01:54:40.422Z,4.19
2023-05-09T01:57:07.800Z,4.18
2023-05-09T01:59:35.302Z,4.17
2023-05-09T02:02:03.361Z,4.16
2023-05-09T02:04:30.049Z,4.18
2023-05-09T02:06:57.088Z,4.19
2023-05-09T02:09:24.562Z,4.19
2023-05-09T02:11:51.318Z,4.18
2023-05-09T02:14:18.123Z,4.17
2023-05-09T02:16:44.917Z,4.17
2023-05-09T02:19:11.657Z,4.17
2023-05-09T02:21:38.415Z,4.18
2023-05-09T02:24:05.748Z,4.18
2023-05-09T02:26:32.448Z,4.19
2023-05-09T02:28:59.219Z,4.22
2023-05-09T02:31:26.076Z,4.24
2023-05-09T02:33:52.937Z,4.25
2023-05-09T02:36:19.696Z,4.25
2023-05-09T02:38:46.951Z,4.26
2023-05-09T02:41:17.254Z,4.27
2023-05-09T02:43:43.959Z,4.29
2023-05-09T02:46:10.962Z,4.31
2023-05-09T02:48:37.762Z,4.32
2023-05-09T02:51:05.298Z,4.32
2023-05-09T02:53:32.014Z,4.34
2023-05-09T02:55:58.800Z,4.35
2023-05-09T02:58:25.590Z,4.38
2023-05-09T03:00:52.344Z,4.44
2023-05-09T03:03:19.313Z,4.52
2023-05-09T03:05:46.445Z,4.61
2023-05-09T03:08:13.250Z,4.71
2023-05-09T03:10:40.120Z,4.83
2023-05-09T03:13:07.289Z,4.94
2023-05-09T03:15:34.045Z,5.07
2023-05-09T03:18:00.844Z,5.20
2023-05-09T03:20:27.912Z,5.35
2023-05-09T03:22:54.876Z,5.50
2023-05-09T03:25:22.387Z,5.65
2023-05-09T03:27:49.335Z,5.82
2023-05-09T03:30:16.143Z,6.00
2023-05-09T03:32:43.535Z,6.15
2023-05-09T03:35:10.414Z,6.35
2023-05-09T03:37:37.739Z,6.56
2023-05-09T03:40:06.621Z,6.76
2023-05-09T03:42:36.848Z,7.00
2023-05-09T03:45:04.454Z,7.25
2023-05-09T03:47:31.397Z,7.51
2023-05-09T03:49:58.783Z,7.75
2023-05-09T03:52:25.716Z,8.01
2023-05-09T03:54:52.658Z,8.28
2023-05-09T03:57:20.013Z,8.53
2023-05-09T03:59:47.474Z,8.78
2023-05-09T04:02:14.811Z,9.08
2023-05-09T04:04:41.595Z,9.39
2023-05-09T04:07:11.458Z,9.71
2023-05-09T04:09:38.150Z,10.01
2023-05-09T04:12:05.356Z,10.28
2023-05-09T04:14:32.554Z,10.56
2023-05-09T04:16:59.440Z,10.89
2023-05-09T04:19:26.230Z,11.22
2023-05-09T04:21:53.507Z,11.55
2023-05-09T04:24:20.692Z,11.87
2023-05-09T04:26:48.109Z,12.15
2023-05-09T04:29:17.748Z,12.45
2023-05-09T04:31:49.585Z,12.73
2023-05-09T04:34:16.579Z,12.97
2023-05-09T04:36:43.344Z,13.23
2023-05-09T04:39:10.880Z,13.50
2023-05-09T04:41:38.622Z,13.74
2023-05-09T04:44:05.624Z,14.00
2023-05-09T04:46:32.427Z,14.33
2023-05-09T04:48:59.180Z,14.71
2023-05-09T04:51:26.550Z,15.09
2023-05-09T04:53:53.292Z,15.55
2023-05-09T04:56:21.885Z,16.06
2023-05-09T04:58:49.502Z,16.55
2023-05-09T05:01:16.862Z,16.95
2023-05-09T05:03:44.330Z,17.33
2023-05-09T05:06:11.258Z,17.81
2023-05-09T05:08:39.374Z,18.29
2023-05-09T05:11:06.255Z,18.70
2023-05-09T05:13:34.100Z,19.05
2023-05-09T05:16:01.105Z,19.47
2023-05-09T05:18:28.013Z,19.99
2023-05-09T05:20:54.864Z,20.41
2023-05-09T05:23:22.295Z,20.80
2023-05-09T05:25:51.246Z,21.25
2023-05-09T05:28:19.151Z,21.59
2023-05-09T05:30:46.075Z,21.88
2023-05-09T05:33:12.856Z,22.13
2023-05-09T05:35:39.666Z,22.37
2023-05-09T05:38:06.643Z,22.59
2023-05-09T05:40:33.494Z,22.96
2023-05-09T05:43:02.301Z,23.40
2023-05-09T05:45:31.016Z,23.67
2023-05-09T05:47:58.636Z,23.77
2023-05-09T05:50:25.418Z,23.87
2023-05-09T05:52:52.802Z,23.98
2023-05-09T05:55:19.580Z,24.11
2023-05-09T05:57:47.709Z,24.25
2023-05-09T06:00:17.064Z,24.35
2023-05-09T06:02:46.169Z,24.64
2023-05-09T06:05:18.557Z,25.08
2023-05-09T06:07:45.632Z,25.46
2023-05-09T06:10:12.343Z,25.92
2023-05-09T06:12:39.106Z,26.22
2023-05-09T06:15:07.224Z,26.62
2023-05-09T06:17:35.904Z,26.94
2023-05-09T06:20:02.737Z,27.08
2023-05-09T06:22:30.060Z,27.16
2023-05-09T06:24:56.851Z,27.30
2023-05-09T06:27:23.790Z,27.27
2023-05-09T06:29:52.679Z,27.17
2023-05-09T06:32:19.690Z,27.28
2023-05-09T06:34:46.550Z,27.41
2023-05-09T06:37:13.286Z,27.65
2023-05-09T06:39:40.083Z,27.89
2023-05-09T06:42:06.800Z,27.90
2023-05-09T06:44:37.097Z,27.92
2023-05-09T06:47:03.779Z,27.91
2023-05-09T06:49:30.565Z,27.90
2023-05-09T06:51:57.244Z,28.00
2023-05-09T06:54:24.180Z,27.89
2023-05-09T06:56:51.258Z,27.56
2023-05-09T06:59:17.960Z,27.12
2023-05-09T07:01:44.727Z,26.82
2023-05-09T07:04:11.772Z,26.63
2023-05-09T07:06:38.523Z,26.57
2023-05-09T07:09:05.473Z,26.65
2023-05-09T07:11:36.361Z,26.77
2023-05-09T07:14:03.955Z,27.00
2023-05-09T07:16:30.810Z,27.01
2023-05-09T07:18:57.592Z,26.97
2023-05-09T07:21:24.403Z,27.18
2023-05-09T07:23:51.172Z,27.38
2023-05-09T07:26:17.913Z,27.39
2023-05-09T07:28:44.969Z,27.49
2023-05-09T07:31:12.145Z,27.49
2023-05-09T07:33:39.007Z,27.52
2023-05-09T07:36:06.163Z,27.83
2023-05-09T07:38:33.154Z,27.85
2023-05-09T07:40:59.947Z,27.75
2023-05-09T07:43:27.356Z,27.80
2023-05-09T07:45:54.309Z,27.79
2023-05-09T07:48:21.220Z,27.90
2023-05-09T07:50:47.930Z,28.34
2023-05-09T07:53:14.910Z,28.70
2023-05-09T07:55:42.131Z,28.56
2023-05-09T07:58:08.988Z,28.38
2023-05-09T08:00:36.139Z,28.67
2023-05-09T08:03:03.006Z,28.19
2023-05-09T08:05:29.972Z,27.69
2023-05-09T08:07:56.678Z,27.27
2023-05-09T08:10:23.633Z,26.73
2023-05-09T08:12:51.410Z,27.31
2023-05-09T08:15:18.469Z,27.70
2023-05-09T08:17:45.587Z,27.22
2023-05-09T08:20:13.230Z,26.99
2023-05-09T08:22:40.506Z,26.09
2023-05-09T08:25:08.298Z,24.44
2023-05-09T08:27:35.011Z,23.17
2023-05-09T08:30:12.679Z,23.87
2023-05-09T08:32:42.169Z,25.19
2023-05-09T08:35:09.146Z,26.09
2023-05-09T08:37:36.570Z,26.72
2023-05-09T08:40:07.996Z,26.83
2023-05-09T08:42:40.116Z,26.50
2023-05-09T08:45:16.244Z,27.06
2023-05-09T08:47:43.782Z,28.21
2023-05-09T08:50:11.898Z,29.13
2023-05-09T08:52:38.810Z,29.49
2023-05-09T08:55:05.658Z,29.42
2023-05-09T08:57:35.340Z,29.89
2023-05-09T09:00:04.513Z,30.79
2023-05-09T09:02:31.351Z,31.46
2023-05-09T09:05:03.180Z,31.23
2023-05-09T09:07:31.357Z,30.86
2023-05-09T09:09:58.707Z,31.22
2023-05-09T09:12:26.842Z,31.28
2023-05-09T09:14:55.335Z,29.97
2023-05-09T09:17:25.466Z,28.20
2023-05-09T09:19:52.557Z,26.98
2023-05-09T09:22:20.533Z,27.52
2023-05-09T09:24:47.649Z,28.40
2023-05-09T09:27:14.565Z,28.59
2023-05-09T09:29:41.257Z,28.40
2023-05-09T09:32:08.014Z,28.48
2023-05-09T09:34:35.007Z,28.61
2023-05-09T09:37:02.405Z,28.70
2023-05-09T09:39:29.367Z,28.10
2023-05-09T09:41:56.532Z,27.27
2023-05-09T09:44:24.158Z,26.76
2023-05-09T09:46:53.064Z,27.16
2023-05-09T09:49:21.333Z,28.14
2023-05-09T09:51:52.207Z,29.10
2023-05-09T09:54:19.165Z,29.65
2023-05-09T09:56:50.042Z,30.11
2023-05-09T09:59:18.550Z,30.35
2023-05-09T10:01:58.013Z,30.15
2023-05-09T10:04:25.576Z,29.94
2023-05-09T10:06:56.505Z,30.28
2023-05-09T10:09:24.161Z,29.87
2023-05-09T10:11:55.060Z,29.41
2023-05-09T10:14:23.526Z,29.40
2023-05-09T10:16:57.497Z,29.15
2023-05-09T10:19:26.454Z,28.06
2023-05-09T10:21:55.067Z,26.61
2023-05-09T10:24:28.005Z,25.52
2023-05-09T10:26:59.509Z,24.76
2023-05-09T10:29:26.275Z,24.11
2023-05-09T10:31:54.753Z,22.96
2023-05-09T10:34:21.633Z,22.00
2023-05-09T10:36:48.571Z,21.51
2023-05-09T10:39:15.384Z,21.26
2023-05-09T10:41:42.100Z,21.12
2023-05-09T10:44:08.902Z,20.84
2023-05-09T10:46:36.011Z,20.31
2023-05-09T10:49:02.987Z,19.79
2023-05-09T10:51:29.817Z,19.36
2023-05-09T10:53:56.634Z,18.97
2023-05-09T10:56:30.005Z,18.59
2023-05-09T10:58:57.399Z,18.25
2023-05-09T11:01:39.056Z,18.05
2023-05-09T11:04:13.219Z,17.92
2023-05-09T11:06:52.531Z,17.83
2023-05-09T11:09:35.529Z,17.83
2023-05-09T11:12:05.386Z,17.78
2023-05-09T11:14:39.685Z,17.81
2023-05-09T11:17:07.750Z,17.95
2023-05-09T11:19:37.463Z,18.07
2023-05-09T11:22:21.254Z,18.07
2023-05-09T11:24:53.912Z,18.11
2023-05-09T11:27:28.618Z,18.07
2023-05-09T11:29:56.636Z,17.95
2023-05-09T11:32:32.998Z,17.94
2023-05-09T11:35:16.277Z,18.10
2023-05-09T11:38:02.594Z,18.28
2023-05-09T11:40:30.136Z,18.31
2023-05-09T11:42:58.700Z,18.13
2023-05-09T11:45:30.326Z,17.87
2023-05-09T11:47:57.444Z,17.59
2023-05-09T11:50:24.407Z,17.40
2023-05-09T11:52:51.309Z,17.33
2023-05-09T11:55:20.471Z,17.36
2023-05-09T11:57:52.015Z,17.36
2023-05-09T12:00:20.535Z,17.28
2023-05-09T12:02:47.877Z,17.04
2023-05-09T12:05:16.920Z,16.76
2023-05-09T12:07:44.639Z,16.47
2023-05-09T12:10:13.193Z,16.26
2023-05-09T12:12:44.856Z,16.07
2023-05-09T12:15:13.594Z,15.96
2023-05-09T12:17:41.652Z,15.93
2023-05-09T12:20:09.150Z,15.97
2023-05-09T12:22:37.491Z,16.02
2023-05-09T12:25:09.586Z,16.07
2023-05-09T12:27:37.399Z,16.06
2023-05-09T12:30:12.098Z,16.14
2023-05-09T12:32:40.284Z,16.30
2023-05-09T12:35:08.454Z,16.43
2023-05-09T12:37:35.255Z,16.45
2023-05-09T12:40:15.732Z,16.45
2023-05-09T12:42:46.112Z,16.37
2023-05-09T12:45:13.412Z,16.23
2023-05-09T12:47:41.855Z,16.02
2023-05-09T12:50:10.629Z,15.87
2023-05-09T12:52:54.006Z,15.70
2023-05-09T12:55:25.590Z,15.48
2023-05-09T12:58:02.536Z,15.28
2023-05-09T13:00:29.713Z,15.15
2023-05-09T13:02:57.132Z,15.09
2023-05-09T13:05:24.410Z,15.08
2023-05-09T13:07:55.155Z,15.08
2023-05-09T13:10:28.418Z,15.08
2023-05-09T13:12:55.211Z,15.04
2023-05-09T13:15:22.709Z,14.99
2023-05-09T13:17:51.107Z,14.92
2023-05-09T13:20:18.933Z,14.90
2023-05-09T13:22:46.128Z,14.91
2023-05-09T13:25:13.116Z,14.96
2023-05-09T13:27:39.956Z,15.01
2023-05-09T13:30:10.217Z,15.07
2023-05-09T13:32:37.138Z,15.15
2023-05-09T13:35:06.877Z,15.19
2023-05-09T13:37:34.540Z,15.19
2023-05-09T13:40:01.603Z,15.17
2023-05-09T13:42:28.465Z,15.16
2023-05-09T13:44:55.175Z,15.19
2023-05-09T13:47:21.926Z,15.24
2023-05-09T13:49:48.700Z,15.27
2023-05-09T13:52:16.165Z,15.25
2023-05-09T13:54:43.006Z,15.32
2023-05-09T13:57:09.791Z,15.43
2023-05-09T13:59:36.931Z,15.55
2023-05-09T14:02:03.882Z,15.66
2023-05-09T14:04:34.390Z,15.75
2023-05-09T14:07:01.373Z,15.80
2023-05-09T14:09:28.878Z,15.77
2023-05-09T14:11:56.710Z,15.68
2023-05-09T14:14:24.266Z,15.58
2023-05-09T14:16:51.079Z,15.42
2023-05-09T14:19:17.804Z,15.27
2023-05-09T14:21:44.855Z,15.13
2023-05-09T14:24:15.008Z,14.99
2023-05-09T14:26:42.785Z,14.90
2023-05-09T14:29:09.513Z,14.85
2023-05-09T14:31:36.916Z,14.80
2023-05-09T14:34:05.373Z,14.75
2023-05-09T14:36:35.172Z,14.67
2023-05-09T14:39:02.368Z,14.53
2023-05-09T14:41:29.161Z,14.42
2023-05-09T14:43:55.994Z,14.34
2023-05-09T14:46:24.864Z,14.29
2023-05-09T14:48:52.889Z,14.22
2023-05-09T14:51:19.706Z,14.13
2023-05-09T14:53:47.260Z,14.08
2023-05-09T14:56:14.257Z,14.07
2023-05-09T14:58:41.048Z,14.05
2023-05-09T15:01:07.927Z,14.03
2023-05-09T15:03:34.881Z,14.03
2023-05-09T15:06:02.084Z,14.04
2023-05-09T15:08:28.828Z,14.06
2023-05-09T15:10:56.748Z,14.08
2023-05-09T15:13:23.761Z,14.08
2023-05-09T15:15:50.934Z,14.05
2023-05-09T15:18:18.593Z,14.00
2023-05-09T15:20:45.504Z,13.95
2023-05-09T15:23:12.473Z,13.90
2023-05-09T15:25:41.049Z,13.86
2023-05-09T15:28:07.770Z,13.81
2023-05-09T15:30:38.115Z,13.77
2023-05-09T15:33:05.309Z,13.72
2023-05-09T15:35:32.070Z,13.65
2023-05-09T15:37:59.155Z,13.58
2023-05-09T15:40:25.950Z,13.50
2023-05-09T15:42:52.990Z,13.44
2023-05-09T15:45:19.708Z,13.38
2023-05-09T15:47:46.745Z,13.33
2023-05-09T15:50:13.978Z,13.31
2023-05-09T15:52:40.918Z,13.28
2023-05-09T15:55:08.633Z,13.28
2023-05-09T15:57:35.451Z,13.28
2023-05-09T16:00:02.239Z,13.32
2023-05-09T16:02:39.418Z,13.40
2023-05-09T16:05:06.653Z,13.49
2023-05-09T16:07:35.812Z,13.59
2023-05-09T16:10:03.075Z,13.67
2023-05-09T16:12:32.771Z,13.72
2023-05-09T16:14:59.899Z,13.76
2023-05-09T16:17:26.813Z,13.77
2023-05-09T16:19:54.821Z,13.72
2023-05-09T16:22:21.898Z,13.63
2023-05-09T16:24:49.227Z,13.53
2023-05-09T16:27:16.449Z,13.43
2023-05-09T16:29:43.276Z,13.34
2023-05-09T16:32:10.285Z,13.25
2023-05-09T16:34:37.265Z,13.17
2023-05-09T16:37:04.166Z,13.08
2023-05-09T16:39:31.082Z,12.99
2023-05-09T16:41:58.263Z,12.90
2023-05-09T16:44:25.458Z,12.82
2023-05-09T16:46:52.542Z,12.74
2023-05-09T16:49:19.276Z,12.68
2023-05-09T16:51:45.979Z,12.60
2023-05-09T16:54:13.025Z,12.52
2023-05-09T16:56:39.870Z,12.45
2023-05-09T16:59:06.581Z,12.36
2023-05-09T17:01:33.474Z,12.29
2023-05-09T17:04:01.653Z,12.22
2023-05-09T17:06:28.665Z,12.22
2023-05-09T17:08:55.483Z,12.16
2023-05-09T17:11:22.760Z,12.10
2023-05-09T17:13:49.661Z,12.05
2023-05-09T17:16:16.568Z,11.97
2023-05-09T17:18:46.122Z,11.91
2023-05-09T17:21:16.700Z,11.85
2023-05-09T17:23:43.546Z,11.78
2023-05-09T17:26:10.518Z,11.70
2023-05-09T17:28:37.231Z,11.64
2023-05-09T17:31:04.537Z,11.61
2023-05-09T17:33:31.458Z,11.55
2023-05-09T17:36:00.131Z,11.49
2023-05-09T17:38:34.716Z,11.37
2023-05-09T17:41:01.920Z,11.25
2023-05-09T17:43:28.726Z,11.23
2023-05-09T17:45:55.954Z,11.13
2023-05-09T17:48:23.097Z,11.05
2023-05-09T17:50:50.368Z,10.99
2023-05-09T17:53:17.840Z,10.93
2023-05-09T17:55:44.611Z,10.88
2023-05-09T17:58:11.510Z,10.88
2023-05-09T18:00:38.225Z,10.90
2023-05-09T18:03:05.346Z,10.84
2023-05-09T18:05:32.204Z,10.72
2023-05-09T18:08:00.874Z,10.65
2023-05-09T18:10:28.527Z,10.60
2023-05-09T18:12:55.396Z,10.53
2023-05-09T18:15:22.214Z,10.47
2023-05-09T18:17:49.457Z,10.42
2023-05-09T18:20:16.452Z,10.36
2023-05-09T18:22:43.530Z,10.31
2023-05-09T18:25:10.458Z,10.25
2023-05-09T18:27:37.277Z,10.19
2023-05-09T18:30:04.941Z,10.14
2023-05-09T18:32:34.806Z,10.08
2023-05-09T18:35:01.584Z,10.04
2023-05-09T18:37:28.326Z,9.99
2023-05-09T18:39:55.116Z,9.94
2023-05-09T18:42:22.232Z,9.88
2023-05-09T18:44:49.291Z,9.83
2023-05-09T18:47:16.090Z,9.77
2023-05-09T18:49:42.962Z,9.71
2023-05-09T18:52:10.311Z,9.67
2023-05-09T18:54:38.248Z,9.64
2023-05-09T18:57:05.062Z,9.59
2023-05-09T18:59:32.340Z,9.56
2023-05-09T19:01:59.556Z,9.52
2023-05-09T19:04:26.872Z,9.48
2023-05-09T19:06:53.833Z,9.45
2023-05-09T19:09:20.672Z,9.42
2023-05-09T19:11:47.431Z,9.39
2023-05-09T19:14:14.230Z,9.37
2023-05-09T19:16:41.146Z,9.34
2023-05-09T19:19:09.006Z,9.32
2023-05-09T19:21:36.205Z,9.31
2023-05-09T19:24:04.679Z,9.29
2023-05-09T19:26:31.452Z,9.28
2023-05-09T19:28:58.366Z,9.26
2023-05-09T19:31:25.734Z,9.25
2023-05-09T19:33:54.849Z,9.23
2023-05-09T19:36:21.887Z,9.21
2023-05-09T19:38:48.649Z,9.19
2023-05-09T19:41:15.450Z,9.15
2023-05-09T19:43:42.768Z,9.16
2023-05-09T19:46:09.807Z,9.18
2023-05-09T19:48:37.889Z,9.16
2023-05-09T19:51:04.695Z,9.13
2023-05-09T19:53:31.644Z,9.09
2023-05-09T19:55:58.779Z,9.08
2023-05-09T19:58:25.646Z,9.06
2023-05-09T20:00:52.419Z,9.03
2023-05-09T20:03:19.174Z,9.00
2023-05-09T20:05:45.921Z,8.97
2023-05-09T20:08:15.616Z,8.95
2023-05-09T20:10:44.512Z,8.93
2023-05-09T20:13:11.327Z,8.91
2023-05-09T20:15:38.113Z,8.87
2023-05-09T20:18:07.113Z,8.85
2023-05-09T20:20:34.110Z,8.83
2023-05-09T20:23:00.839Z,8.79
2023-05-09T20:25:27.669Z,8.78
2023-05-09T20:27:54.807Z,8.76
2023-05-09T20:30:21.685Z,8.73
2023-05-09T20:32:48.452Z,8.72
2023-05-09T20:35:15.382Z,8.70
2023-05-09T20:37:42.262Z,8.68
2023-05-09T20:40:09.514Z,8.66
2023-05-09T20:42:36.418Z,8.65
2023-05-09T20:45:03.755Z,8.63
2023-05-09T20:47:30.528Z,8.60
2023-05-09T20:49:58.329Z,8.57
2023-05-09T20:52:25.506Z,8.54
2023-05-09T20:54:52.291Z,8.51
2023-05-09T20:57:19.194Z,8.49
2023-05-09T20:59:45.887Z,8.47
2023-05-09T21:02:13.678Z,8.46
2023-05-09T21:04:43.036Z,8.44
2023-05-09T21:07:10.113Z,8.42
2023-05-09T21:09:36.899Z,8.39
2023-05-09T21:12:04.521Z,8.37
2023-05-09T21:14:31.342Z,8.36
2023-05-09T21:16:58.461Z,8.36
2023-05-09T21:19:25.647Z,8.35
2023-05-09T21:21:52.417Z,8.34
2023-05-09T21:24:19.185Z,8.32
2023-05-09T21:26:45.993Z,8.31
2023-05-09T21:29:12.904Z,8.30
2023-05-09T21:31:39.745Z,8.29
2023-05-09T21:34:09.996Z,8.28
2023-05-09T21:36:38.446Z,8.26
2023-05-09T21:39:09.135Z,8.25
2023-05-09T21:41:37.035Z,8.25
2023-05-09T21:44:04.020Z,8.24
2023-05-09T21:46:34.747Z,8.24
2023-05-09T21:49:01.876Z,8.22
2023-05-09T21:51:28.787Z,8.20
2023-05-09T21:53:55.702Z,8.18
2023-05-09T21:56:22.736Z,8.18
2023-05-09T21:58:49.523Z,8.15
2023-05-09T22:01:16.678Z,8.13
2023-05-09T22:03:43.569Z,8.10
2023-05-09T22:06:11.557Z,8.07
2023-05-09T22:08:38.382Z,8.00
2023-05-09T22:11:05.096Z,7.93
2023-05-09T22:13:31.775Z,7.86
2023-05-09T22:15:58.541Z,7.81
2023-05-09T22:18:25.252Z,7.77
2023-05-09T22:20:51.970Z,7.74
2023-05-09T22:23:18.694Z,7.70
2023-05-09T22:25:45.455Z,7.67
2023-05-09T22:28:12.178Z,7.62
2023-05-09T22:30:38.900Z,7.56
2023-05-09T22:33:05.823Z,7.50
2023-05-09T22:35:32.621Z,7.44
2023-05-09T22:37:59.307Z,7.37
2023-05-09T22:40:26.792Z,7.27
2023-05-09T22:42:53.551Z,7.17
2023-05-09T22:45:20.802Z,7.07
2023-05-09T22:47:47.509Z,7.00
2023-05-09T22:50:14.630Z,6.91
2023-05-09T22:52:41.632Z,6.84
2023-05-09T22:55:08.751Z,6.77
2023-05-09T22:57:35.993Z,6.71
2023-05-09T23:00:03.205Z,6.61
2023-05-09T23:02:29.943Z,6.47
2023-05-09T23:04:56.753Z,6.34
2023-05-09T23:07:23.440Z,6.23
2023-05-09T23:09:50.738Z,6.13
2023-05-09T23:12:17.676Z,6.06
2023-05-09T23:14:44.398Z,5.98
2023-05-09T23:17:11.161Z,5.91
2023-05-09T23:19:38.138Z,5.84
2023-05-09T23:22:04.944Z,5.80
2023-05-09T23:24:31.659Z,5.79
2023-05-09T23:26:58.433Z,5.80
2023-05-09T23:29:25.252Z,5.82
2023-05-09T23:31:52.250Z,5.85
2023-05-09T23:34:19.320Z,5.84
2023-05-09T23:36:46.290Z,5.81
2023-05-09T23:39:13.284Z,5.73
2023-05-09T23:41:40.101Z,5.70
2023-05-09T23:44:07.675Z,5.70
2023-05-09T23:46:34.606Z,5.72
2023-05-09T23:49:01.509Z,5.73
2023-05-09T23:51:28.393Z,5.74
2023-05-09T23:53:55.050Z,5.75
2023-05-09T23:56:22.445Z,5.73
2023-05-09T23:58:49.196Z,5.73
